sensor_id;sensor_type;location;lat;lon;timestamp;pressure;altitude;pressure_sealevel;temperature;humidity
5455;BME280;2750;49.050;9.250;2023-02-04T00:02:37;100019.28;;;9.11;100.00
5455;BME280;2750;49.050;9.250;2023-02-04T00:07:40;100023.84;;;8.99;100.00
5455;BME280;2750;49.050;9.250;2023-02-04T00:12:41;100013.66;;;8.91;100.00
5455;BME280;2750;49.050;9.250;2023-02-04T00:17:43;100012.63;;;8.98;100.00
5455;BME280;2750;49.050;9.250;2023-02-04T00:22:46;100026.53;;;8.94;100.00
5455;BME280;2750;49.050;9.250;2023-02-04T00:27:47;100024.25;;;9.22;100.00
5455;BME280;2750;49.050;9.250;2023-02-04T00:32:49;100010.91;;;9.00;100.00
5455;BME280;2750;49.050;9.250;2023-02-04T00:37:55;100015.38;;;8.92;100.00
5455;BME280;2750;49.050;9.250;2023-02-04T00:42:56;100031.41;;;9.09;100.00
5455;BME280;2750;49.050;9.250;2023-02-04T00:47:58;100020.78;;;9.22;100.00
5455;BME280;2750;49.050;9.250;2023-02-04T00:53:01;100029.09;;;9.37;100.00
5455;BME280;2750;49.050;9.250;2023-02-04T00:58:04;100050.47;;;9.05;100.00
5455;BME280;2750;49.050;9.250;2023-02-04T01:03:05;100036.25;;;9.25;100.00
5455;BME280;2750;49.050;9.250;2023-02-04T01:08:08;100033.47;;;9.34;100.00
5455;BME280;2750;49.050;9.250;2023-02-04T01:13:10;100045.78;;;8.81;100.00
5455;BME280;2750;49.050;9.250;2023-02-04T01:18:12;100082.53;;;8.98;100.00
5455;BME280;2750;49.050;9.250;2023-02-04T01:23:14;100050.69;;;8.95;100.00
5455;BME280;2750;49.050;9.250;2023-02-04T01:28:16;100048.88;;;8.98;100.00
5455;BME280;2750;49.050;9.250;2023-02-04T01:33:17;100057.38;;;9.05;100.00
5455;BME280;2750;49.050;9.250;2023-02-04T01:38:20;100061.44;;;9.17;100.00
5455;BME280;2750;49.050;9.250;2023-02-04T01:43:22;100059.78;;;9.16;100.00
5455;BME280;2750;49.050;9.250;2023-02-04T01:48:24;100072.28;;;9.35;99.35
5455;BME280;2750;49.050;9.250;2023-02-04T01:53:27;100078.84;;;9.11;100.00
5455;BME280;2750;49.050;9.250;2023-02-04T01:58:30;100085.38;;;9.28;100.00
5455;BME280;2750;49.050;9.250;2023-02-04T02:03:32;100098.00;;;9.44;100.00
5455;BME280;2750;49.050;9.250;2023-02-04T02:08:35;100097.16;;;9.44;98.55
5455;BME280;2750;49.050;9.250;2023-02-04T02:13:37;100093.09;;;9.72;97.39
5455;BME280;2750;49.050;9.250;2023-02-04T02:18:39;100118.66;;;9.49;97.47
5455;BME280;2750;49.050;9.250;2023-02-04T02:23:47;100123.66;;;9.56;96.90
5455;BME280;2750;49.050;9.250;2023-02-04T02:28:50;100107.50;;;9.44;97.55
5455;BME280;2750;49.050;9.250;2023-02-04T02:33:52;100115.09;;;9.53;96.56
5455;BME280;2750;49.050;9.250;2023-02-04T02:38:54;100115.28;;;9.44;97.18
5455;BME280;2750;49.050;9.250;2023-02-04T02:43:58;100107.25;;;9.56;96.96
5455;BME280;2750;49.050;9.250;2023-02-04T02:48:59;100118.16;;;9.30;97.39
5455;BME280;2750;49.050;9.250;2023-02-04T02:54:02;100118.25;;;9.26;98.77
5455;BME280;2750;49.050;9.250;2023-02-04T02:59:13;100119.28;;;9.58;97.12
5455;BME280;2750;49.050;9.250;2023-02-04T03:04:16;100134.50;;;9.32;98.36
5455;BME280;2750;49.050;9.250;2023-02-04T03:09:20;100114.78;;;9.27;97.31
5455;BME280;2750;49.050;9.250;2023-02-04T03:14:22;100132.13;;;9.22;97.59
5455;BME280;2750;49.050;9.250;2023-02-04T03:19:25;100138.09;;;9.27;97.66
5455;BME280;2750;49.050;9.250;2023-02-04T03:24:29;100151.78;;;9.32;97.17
5455;BME280;2750;49.050;9.250;2023-02-04T03:29:31;100171.63;;;9.33;96.03
5455;BME280;2750;49.050;9.250;2023-02-04T03:34:32;100158.59;;;9.39;95.99
5455;BME280;2750;49.050;9.250;2023-02-04T03:39:35;100169.63;;;9.47;95.44
5455;BME280;2750;49.050;9.250;2023-02-04T03:44:37;100170.78;;;9.75;95.02
5455;BME280;2750;49.050;9.250;2023-02-04T03:49:39;100179.81;;;9.56;96.02
5455;BME280;2750;49.050;9.250;2023-02-04T03:54:41;100184.41;;;9.42;96.37
5455;BME280;2750;49.050;9.250;2023-02-04T03:59:43;100201.41;;;9.55;95.73
5455;BME280;2750;49.050;9.250;2023-02-04T04:04:44;100206.56;;;9.56;95.64
5455;BME280;2750;49.050;9.250;2023-02-04T04:09:47;100202.91;;;9.67;95.45
5455;BME280;2750;49.050;9.250;2023-02-04T04:14:49;100219.78;;;9.87;93.82
5455;BME280;2750;49.050;9.250;2023-02-04T04:19:50;100220.09;;;10.12;92.20
5455;BME280;2750;49.050;9.250;2023-02-04T04:24:53;100228.88;;;10.06;92.32
5455;BME280;2750;49.050;9.250;2023-02-04T04:29:55;100234.41;;;9.91;92.43
5455;BME280;2750;49.050;9.250;2023-02-04T04:34:56;100241.59;;;9.77;92.50
5455;BME280;2750;49.050;9.250;2023-02-04T04:39:59;100260.91;;;9.61;92.56
5455;BME280;2750;49.050;9.250;2023-02-04T04:45:02;100265.00;;;9.73;91.67
5455;BME280;2750;49.050;9.250;2023-02-04T04:50:04;100265.31;;;9.54;92.80
5455;BME280;2750;49.050;9.250;2023-02-04T04:55:08;100263.13;;;9.35;92.90
5455;BME280;2750;49.050;9.250;2023-02-04T05:00:14;100258.88;;;9.29;94.41
5455;BME280;2750;49.050;9.250;2023-02-04T05:05:15;100261.47;;;9.31;94.21
5455;BME280;2750;49.050;9.250;2023-02-04T05:10:19;100256.72;;;9.54;93.67
5455;BME280;2750;49.050;9.250;2023-02-04T05:15:20;100274.88;;;9.52;93.79
5455;BME280;2750;49.050;9.250;2023-02-04T05:20:22;100275.34;;;9.25;94.26
5455;BME280;2750;49.050;9.250;2023-02-04T05:25:24;100271.75;;;8.82;97.72
5455;BME280;2750;49.050;9.250;2023-02-04T05:30:26;100272.72;;;8.76;98.37
5455;BME280;2750;49.050;9.250;2023-02-04T05:35:27;100267.09;;;9.03;97.51
5455;BME280;2750;49.050;9.250;2023-02-04T05:40:30;100277.22;;;9.17;96.36
5455;BME280;2750;49.050;9.250;2023-02-04T05:45:32;100273.16;;;9.53;95.50
5455;BME280;2750;49.050;9.250;2023-02-04T05:50:33;100285.50;;;9.37;93.90
5455;BME280;2750;49.050;9.250;2023-02-04T05:55:36;100283.44;;;9.05;95.65
5455;BME280;2750;49.050;9.250;2023-02-04T06:00:38;100304.56;;;8.78;96.13
5455;BME280;2750;49.050;9.250;2023-02-04T06:05:39;100307.53;;;8.54;96.63
5455;BME280;2750;49.050;9.250;2023-02-04T06:10:42;100312.56;;;8.63;96.17
5455;BME280;2750;49.050;9.250;2023-02-04T06:15:43;100332.06;;;8.87;94.84
5455;BME280;2750;49.050;9.250;2023-02-04T06:20:45;100323.50;;;8.83;92.60
5455;BME280;2750;49.050;9.250;2023-02-04T06:25:48;100335.00;;;8.61;93.32
5455;BME280;2750;49.050;9.250;2023-02-04T06:30:49;100347.53;;;8.23;93.65
5455;BME280;2750;49.050;9.250;2023-02-04T06:35:51;100344.97;;;8.21;94.62
5455;BME280;2750;49.050;9.250;2023-02-04T06:40:54;100344.06;;;8.25;95.48
5455;BME280;2750;49.050;9.250;2023-02-04T06:45:55;100344.84;;;8.32;94.46
5455;BME280;2750;49.050;9.250;2023-02-04T06:50:57;100347.50;;;8.29;94.58
5455;BME280;2750;49.050;9.250;2023-02-04T06:56:00;100357.53;;;8.53;93.79
5455;BME280;2750;49.050;9.250;2023-02-04T07:01:01;100369.25;;;8.78;94.34
5455;BME280;2750;49.050;9.250;2023-02-04T07:06:03;100381.44;;;8.73;93.89
5455;BME280;2750;49.050;9.250;2023-02-04T07:11:06;100391.63;;;8.82;93.90
5455;BME280;2750;49.050;9.250;2023-02-04T07:16:07;100402.91;;;8.78;93.93
5455;BME280;2750;49.050;9.250;2023-02-04T07:21:09;100414.22;;;8.71;94.17
5455;BME280;2750;49.050;9.250;2023-02-04T07:26:12;100414.25;;;8.68;93.95
5455;BME280;2750;49.050;9.250;2023-02-04T07:31:14;100414.50;;;8.50;95.54
5455;BME280;2750;49.050;9.250;2023-02-04T07:36:15;100426.38;;;8.66;94.68
5455;BME280;2750;49.050;9.250;2023-02-04T07:41:18;100418.44;;;8.80;94.17
5455;BME280;2750;49.050;9.250;2023-02-04T07:46:20;100432.75;;;9.06;92.53
5455;BME280;2750;49.050;9.250;2023-02-04T07:51:22;100449.47;;;9.44;90.20
5455;BME280;2750;49.050;9.250;2023-02-04T07:56:25;100450.25;;;8.86;90.88
5455;BME280;2750;49.050;9.250;2023-02-04T08:01:26;100457.00;;;8.99;89.18
5455;BME280;2750;49.050;9.250;2023-02-04T08:06:28;100465.56;;;9.04;90.71
5455;BME280;2750;49.050;9.250;2023-02-04T08:11:31;100466.09;;;9.29;90.34
5455;BME280;2750;49.050;9.250;2023-02-04T08:16:32;100472.38;;;9.71;87.84
5455;BME280;2750;49.050;9.250;2023-02-04T08:21:33;100489.34;;;9.90;88.68
5455;BME280;2750;49.050;9.250;2023-02-04T08:26:37;100491.09;;;10.42;86.35
5455;BME280;2750;49.050;9.250;2023-02-04T08:31:38;100495.50;;;10.37;85.94
5455;BME280;2750;49.050;9.250;2023-02-04T08:36:40;100490.06;;;9.98;87.11
5455;BME280;2750;49.050;9.250;2023-02-04T08:41:45;100499.53;;;9.43;88.92
5455;BME280;2750;49.050;9.250;2023-02-04T08:46:47;100504.09;;;9.85;87.72
5455;BME280;2750;49.050;9.250;2023-02-04T08:51:48;100518.13;;;10.27;85.85
5455;BME280;2750;49.050;9.250;2023-02-04T08:56:51;100518.38;;;10.63;85.65
5455;BME280;2750;49.050;9.250;2023-02-04T09:01:52;100518.84;;;10.84;84.78
5455;BME280;2750;49.050;9.250;2023-02-04T09:06:54;100521.09;;;10.57;85.55
5455;BME280;2750;49.050;9.250;2023-02-04T09:11:57;100532.47;;;10.48;85.78
5455;BME280;2750;49.050;9.250;2023-02-04T09:16:58;100545.78;;;10.77;85.67
5455;BME280;2750;49.050;9.250;2023-02-04T09:22:00;100550.13;;;11.20;85.35
5455;BME280;2750;49.050;9.250;2023-02-04T09:27:03;100551.53;;;11.36;84.95
5455;BME280;2750;49.050;9.250;2023-02-04T09:32:04;100554.69;;;11.10;85.38
5455;BME280;2750;49.050;9.250;2023-02-04T09:37:06;100559.53;;;10.82;86.30
5455;BME280;2750;49.050;9.250;2023-02-04T09:42:12;100557.13;;;11.16;84.87
5455;BME280;2750;49.050;9.250;2023-02-04T09:47:21;100573.56;;;11.58;84.44
5455;BME280;2750;49.050;9.250;2023-02-04T09:52:24;100581.44;;;11.55;81.19
5455;BME280;2750;49.050;9.250;2023-02-04T09:57:29;100583.25;;;11.51;78.84
5455;BME280;2750;49.050;9.250;2023-02-04T10:02:30;100568.19;;;11.67;79.18
5455;BME280;2750;49.050;9.250;2023-02-04T10:07:32;100571.91;;;11.56;77.42
5455;BME280;2750;49.050;9.250;2023-02-04T10:12:35;100587.59;;;11.51;78.14
5455;BME280;2750;49.050;9.250;2023-02-04T10:17:37;100579.41;;;11.28;77.76
5455;BME280;2750;49.050;9.250;2023-02-04T10:22:39;100580.44;;;11.21;76.97
5455;BME280;2750;49.050;9.250;2023-02-04T10:27:49;100583.31;;;10.60;77.79
5455;BME280;2750;49.050;9.250;2023-02-04T10:32:51;100573.16;;;10.95;76.82
5455;BME280;2750;49.050;9.250;2023-02-04T10:38:03;100569.34;;;11.54;73.41
5455;BME280;2750;49.050;9.250;2023-02-04T10:43:12;100573.88;;;10.54;76.05
5455;BME280;2750;49.050;9.250;2023-02-04T10:48:15;100575.34;;;10.70;76.18
5455;BME280;2750;49.050;9.250;2023-02-04T10:53:18;100575.25;;;10.26;74.60
5455;BME280;2750;49.050;9.250;2023-02-04T10:58:39;100577.25;;;11.89;72.93
5455;BME280;2750;49.050;9.250;2023-02-04T11:03:42;100587.78;;;12.22;70.02
5455;BME280;2750;49.050;9.250;2023-02-04T11:08:43;100589.31;;;11.54;73.82
5455;BME280;2750;49.050;9.250;2023-02-04T11:13:58;100579.13;;;10.51;76.31
5455;BME280;2750;49.050;9.250;2023-02-04T11:19:03;100570.25;;;10.64;75.07
5455;BME280;2750;49.050;9.250;2023-02-04T11:24:21;100571.28;;;11.01;73.95
5455;BME280;2750;49.050;9.250;2023-02-04T11:29:29;100573.31;;;10.87;72.77
5455;BME280;2750;49.050;9.250;2023-02-04T11:34:46;100582.28;;;10.19;74.81
5455;BME280;2750;49.050;9.250;2023-02-04T11:39:49;100580.06;;;10.48;75.50
5455;BME280;2750;49.050;9.250;2023-02-04T11:44:54;100576.41;;;10.59;74.09
5455;BME280;2750;49.050;9.250;2023-02-04T11:50:01;100576.56;;;10.98;72.65
5455;BME280;2750;49.050;9.250;2023-02-04T11:55:03;100571.34;;;10.51;73.05
5455;BME280;2750;49.050;9.250;2023-02-04T12:00:12;100580.13;;;10.45;73.91
5455;BME280;2750;49.050;9.250;2023-02-04T12:05:15;100589.66;;;9.85;74.63
5455;BME280;2750;49.050;9.250;2023-02-04T12:10:24;100587.22;;;10.34;75.14
5455;BME280;2750;49.050;9.250;2023-02-04T12:15:32;100597.13;;;10.05;73.67
5455;BME280;2750;49.050;9.250;2023-02-04T12:20:35;100600.44;;;11.16;70.27
5455;BME280;2750;49.050;9.250;2023-02-04T12:25:37;100599.41;;;10.29;74.53
5455;BME280;2750;49.050;9.250;2023-02-04T12:30:40;100596.28;;;10.61;75.00
5455;BME280;2750;49.050;9.250;2023-02-04T12:35:41;100591.28;;;10.49;76.01
5455;BME280;2750;49.050;9.250;2023-02-04T12:40:43;100596.53;;;10.95;74.11
5455;BME280;2750;49.050;9.250;2023-02-04T12:45:46;100594.94;;;10.88;73.70
5455;BME280;2750;49.050;9.250;2023-02-04T12:50:48;100592.00;;;11.04;70.70
5455;BME280;2750;49.050;9.250;2023-02-04T12:55:50;100597.25;;;11.01;70.05
5455;BME280;2750;49.050;9.250;2023-02-04T13:00:53;100585.09;;;11.46;70.21
5455;BME280;2750;49.050;9.250;2023-02-04T13:05:55;100590.13;;;12.32;67.55
5455;BME280;2750;49.050;9.250;2023-02-04T13:10:56;100587.41;;;12.37;66.64
5455;BME280;2750;49.050;9.250;2023-02-04T13:15:59;100589.75;;;12.48;64.84
5455;BME280;2750;49.050;9.250;2023-02-04T13:21:01;100596.63;;;12.15;66.16
5455;BME280;2750;49.050;9.250;2023-02-04T13:26:02;100600.50;;;12.34;66.27
5455;BME280;2750;49.050;9.250;2023-02-04T13:31:05;100600.06;;;11.77;67.51
5455;BME280;2750;49.050;9.250;2023-02-04T13:36:07;100605.50;;;10.25;69.78
5455;BME280;2750;49.050;9.250;2023-02-04T13:41:09;100608.09;;;9.64;71.96
5455;BME280;2750;49.050;9.250;2023-02-04T13:46:11;100612.81;;;9.97;71.89
5455;BME280;2750;49.050;9.250;2023-02-04T13:51:13;100613.56;;;10.07;73.96
5455;BME280;2750;49.050;9.250;2023-02-04T13:56:15;100611.28;;;9.83;77.25
5455;BME280;2750;49.050;9.250;2023-02-04T14:01:18;100608.88;;;10.82;74.16
5455;BME280;2750;49.050;9.250;2023-02-04T14:06:19;100609.25;;;11.09;73.24
5455;BME280;2750;49.050;9.250;2023-02-04T14:11:21;100613.78;;;9.90;76.51
5455;BME280;2750;49.050;9.250;2023-02-04T14:16:24;100616.25;;;9.99;77.73
5455;BME280;2750;49.050;9.250;2023-02-04T14:21:26;100617.88;;;10.06;76.90
5455;BME280;2750;49.050;9.250;2023-02-04T14:26:27;100628.53;;;9.85;77.36
5455;BME280;2750;49.050;9.250;2023-02-04T14:31:30;100629.59;;;9.71;77.51
5455;BME280;2750;49.050;9.250;2023-02-04T14:36:32;100635.66;;;9.71;77.20
5455;BME280;2750;49.050;9.250;2023-02-04T14:41:33;100638.53;;;9.48;77.91
5455;BME280;2750;49.050;9.250;2023-02-04T14:46:36;100640.25;;;9.49;77.09
5455;BME280;2750;49.050;9.250;2023-02-04T14:51:40;100645.91;;;9.80;75.79
5455;BME280;2750;49.050;9.250;2023-02-04T14:56:42;100645.00;;;9.81;74.97
5455;BME280;2750;49.050;9.250;2023-02-04T15:01:45;100642.41;;;9.84;75.50
5455;BME280;2750;49.050;9.250;2023-02-04T15:06:46;100646.31;;;9.47;76.19
5455;BME280;2750;49.050;9.250;2023-02-04T15:11:50;100643.75;;;10.09;73.79
5455;BME280;2750;49.050;9.250;2023-02-04T15:16:53;100650.38;;;9.66;75.30
5455;BME280;2750;49.050;9.250;2023-02-04T15:21:54;100657.91;;;9.12;77.33
5455;BME280;2750;49.050;9.250;2023-02-04T15:26:56;100658.38;;;9.48;75.74
5455;BME280;2750;49.050;9.250;2023-02-04T15:31:58;100665.97;;;8.85;76.78
5455;BME280;2750;49.050;9.250;2023-02-04T15:37:00;100683.56;;;8.36;79.15
5455;BME280;2750;49.050;9.250;2023-02-04T15:42:02;100689.69;;;8.23;79.64
5455;BME280;2750;49.050;9.250;2023-02-04T15:47:05;100687.97;;;8.19;80.03
5455;BME280;2750;49.050;9.250;2023-02-04T15:52:06;100687.13;;;8.18;80.01
5455;BME280;2750;49.050;9.250;2023-02-04T15:57:08;100688.00;;;8.14;78.73
5455;BME280;2750;49.050;9.250;2023-02-04T16:02:11;100693.03;;;8.40;77.79
5455;BME280;2750;49.050;9.250;2023-02-04T16:07:12;100688.47;;;8.76;77.66
5455;BME280;2750;49.050;9.250;2023-02-04T16:12:14;100691.84;;;8.84;76.82
5455;BME280;2750;49.050;9.250;2023-02-04T16:17:17;100700.66;;;8.60;77.73
5455;BME280;2750;49.050;9.250;2023-02-04T16:22:18;100712.63;;;8.78;76.69
5455;BME280;2750;49.050;9.250;2023-02-04T16:27:20;100708.31;;;8.75;76.58
5455;BME280;2750;49.050;9.250;2023-02-04T16:32:23;100721.31;;;8.69;77.00
5455;BME280;2750;49.050;9.250;2023-02-04T16:37:25;100726.63;;;8.48;77.25
5455;BME280;2750;49.050;9.250;2023-02-04T16:42:26;100727.78;;;7.89;79.38
5455;BME280;2750;49.050;9.250;2023-02-04T16:47:31;100736.50;;;7.41;82.62
5455;BME280;2750;49.050;9.250;2023-02-04T16:52:33;100737.34;;;7.57;82.21
5455;BME280;2750;49.050;9.250;2023-02-04T16:57:34;100731.34;;;7.50;82.35
5455;BME280;2750;49.050;9.250;2023-02-04T17:02:37;100733.97;;;7.23;83.68
5455;BME280;2750;49.050;9.250;2023-02-04T17:07:39;100750.34;;;7.04;83.11
5455;BME280;2750;49.050;9.250;2023-02-04T17:12:40;100746.00;;;6.62;83.65
5455;BME280;2750;49.050;9.250;2023-02-04T17:17:43;100749.44;;;6.74;85.34
5455;BME280;2750;49.050;9.250;2023-02-04T17:22:44;100751.16;;;6.65;84.50
5455;BME280;2750;49.050;9.250;2023-02-04T17:27:46;100759.78;;;6.76;83.88
5455;BME280;2750;49.050;9.250;2023-02-04T17:32:51;100753.72;;;6.56;84.75
5455;BME280;2750;49.050;9.250;2023-02-04T17:37:52;100760.56;;;6.34;84.02
5455;BME280;2750;49.050;9.250;2023-02-04T17:42:54;100747.38;;;5.66;87.12
5455;BME280;2750;49.050;9.250;2023-02-04T17:47:57;100764.66;;;5.85;86.32
5455;BME280;2750;49.050;9.250;2023-02-04T17:52:58;100769.53;;;5.41;87.85
5455;BME280;2750;49.050;9.250;2023-02-04T17:58:05;100781.69;;;5.65;87.15
5455;BME280;2750;49.050;9.250;2023-02-04T18:03:11;100776.47;;;5.53;87.61
5455;BME280;2750;49.050;9.250;2023-02-04T18:08:14;100768.84;;;5.69;85.85
5455;BME280;2750;49.050;9.250;2023-02-04T18:13:19;100781.72;;;5.68;85.89
5455;BME280;2750;49.050;9.250;2023-02-04T18:18:24;100783.47;;;5.70;86.37
5455;BME280;2750;49.050;9.250;2023-02-04T18:23:27;100780.63;;;5.31;86.12
5455;BME280;2750;49.050;9.250;2023-02-04T18:28:33;100769.63;;;5.55;85.93
5455;BME280;2750;49.050;9.250;2023-02-04T18:33:36;100770.22;;;5.19;86.65
5455;BME280;2750;49.050;9.250;2023-02-04T18:38:40;100771.19;;;5.32;85.49
5455;BME280;2750;49.050;9.250;2023-02-04T18:43:43;100773.53;;;5.03;86.41
5455;BME280;2750;49.050;9.250;2023-02-04T18:49:16;100774.47;;;5.14;85.67
5455;BME280;2750;49.050;9.250;2023-02-04T18:54:28;100780.38;;;5.01;86.47
5455;BME280;2750;49.050;9.250;2023-02-04T18:59:33;100779.38;;;4.85;86.44
5455;BME280;2750;49.050;9.250;2023-02-04T19:04:36;100780.19;;;4.78;86.47
5455;BME280;2750;49.050;9.250;2023-02-04T19:09:37;100780.25;;;4.86;85.79
5455;BME280;2750;49.050;9.250;2023-02-04T19:14:40;100791.97;;;4.58;86.48
5455;BME280;2750;49.050;9.250;2023-02-04T19:19:46;100793.41;;;4.31;88.82
5455;BME280;2750;49.050;9.250;2023-02-04T19:24:55;100795.47;;;4.64;87.57
5455;BME280;2750;49.050;9.250;2023-02-04T19:29:59;100801.41;;;4.56;87.17
5455;BME280;2750;49.050;9.250;2023-02-04T19:35:16;100792.75;;;4.51;87.42
5455;BME280;2750;49.050;9.250;2023-02-04T19:40:27;100786.78;;;4.53;87.62
5455;BME280;2750;49.050;9.250;2023-02-04T19:45:29;100795.50;;;3.95;89.29
5455;BME280;2750;49.050;9.250;2023-02-04T19:50:33;100799.97;;;4.08;89.25
5455;BME280;2750;49.050;9.250;2023-02-04T19:55:35;100791.25;;;3.94;88.54
5455;BME280;2750;49.050;9.250;2023-02-04T20:00:54;100800.41;;;3.77;90.64
5455;BME280;2750;49.050;9.250;2023-02-04T20:06:00;100800.06;;;4.16;89.99
5455;BME280;2750;49.050;9.250;2023-02-04T20:11:21;100799.47;;;4.37;88.29
5455;BME280;2750;49.050;9.250;2023-02-04T20:16:36;100807.03;;;4.24;88.73
5455;BME280;2750;49.050;9.250;2023-02-04T20:21:39;100815.28;;;4.01;88.88
5455;BME280;2750;49.050;9.250;2023-02-04T20:26:41;100813.56;;;4.00;89.07
5455;BME280;2750;49.050;9.250;2023-02-04T20:31:42;100819.72;;;4.12;87.82
5455;BME280;2750;49.050;9.250;2023-02-04T20:36:45;100824.91;;;4.18;88.83
5455;BME280;2750;49.050;9.250;2023-02-04T20:41:47;100823.22;;;4.17;88.02
5455;BME280;2750;49.050;9.250;2023-02-04T20:46:48;100822.97;;;3.99;87.30
5455;BME280;2750;49.050;9.250;2023-02-04T20:51:55;100817.78;;;3.96;87.60
5455;BME280;2750;49.050;9.250;2023-02-04T20:57:07;100824.44;;;3.82;88.29
5455;BME280;2750;49.050;9.250;2023-02-04T21:02:16;100837.09;;;3.70;87.95
5455;BME280;2750;49.050;9.250;2023-02-04T21:07:20;100838.81;;;3.68;87.80
5455;BME280;2750;49.050;9.250;2023-02-04T21:12:22;100844.63;;;3.56;88.42
5455;BME280;2750;49.050;9.250;2023-02-04T21:17:25;100842.75;;;3.48;88.53
5455;BME280;2750;49.050;9.250;2023-02-04T21:22:28;100852.63;;;3.77;87.94
5455;BME280;2750;49.050;9.250;2023-02-04T21:27:30;100855.78;;;3.61;88.18
5455;BME280;2750;49.050;9.250;2023-02-04T21:32:31;100849.03;;;3.66;89.39
5455;BME280;2750;49.050;9.250;2023-02-04T21:37:34;100860.25;;;3.73;90.27
5455;BME280;2750;49.050;9.250;2023-02-04T21:42:35;100848.53;;;3.90;89.68
5455;BME280;2750;49.050;9.250;2023-02-04T21:47:37;100850.06;;;3.77;89.40
5455;BME280;2750;49.050;9.250;2023-02-04T21:52:40;100852.91;;;3.99;89.43
5455;BME280;2750;49.050;9.250;2023-02-04T21:57:42;100851.28;;;4.04;89.96
5455;BME280;2750;49.050;9.250;2023-02-04T22:02:44;100842.28;;;4.36;89.55
5455;BME280;2750;49.050;9.250;2023-02-04T22:07:47;100848.44;;;4.50;89.56
5455;BME280;2750;49.050;9.250;2023-02-04T22:12:49;100836.41;;;4.48;90.21
5455;BME280;2750;49.050;9.250;2023-02-04T22:17:52;100833.03;;;4.52;90.90
5455;BME280;2750;49.050;9.250;2023-02-04T22:22:55;100829.16;;;4.90;89.70
5455;BME280;2750;49.050;9.250;2023-02-04T22:27:56;100822.31;;;4.95;88.24
5455;BME280;2750;49.050;9.250;2023-02-04T22:32:58;100823.69;;;4.58;88.72
5455;BME280;2750;49.050;9.250;2023-02-04T22:38:02;100831.06;;;5.12;87.54
5455;BME280;2750;49.050;9.250;2023-02-04T22:43:04;100830.25;;;5.16;87.72
5455;BME280;2750;49.050;9.250;2023-02-04T22:48:05;100836.13;;;5.03;87.39
5455;BME280;2750;49.050;9.250;2023-02-04T22:53:08;100848.91;;;4.94;87.55
5455;BME280;2750;49.050;9.250;2023-02-04T22:58:10;100856.53;;;4.85;87.76
5455;BME280;2750;49.050;9.250;2023-02-04T23:03:11;100863.28;;;4.74;88.56
5455;BME280;2750;49.050;9.250;2023-02-04T23:08:14;100846.28;;;4.87;88.49
5455;BME280;2750;49.050;9.250;2023-02-04T23:13:17;100841.13;;;4.88;88.08
5455;BME280;2750;49.050;9.250;2023-02-04T23:18:19;100840.34;;;4.94;88.40
5455;BME280;2750;49.050;9.250;2023-02-04T23:23:22;100840.44;;;5.04;88.01
5455;BME280;2750;49.050;9.250;2023-02-04T23:28:23;100836.94;;;4.98;87.79
5455;BME280;2750;49.050;9.250;2023-02-04T23:33:25;100839.25;;;4.72;88.24
5455;BME280;2750;49.050;9.250;2023-02-04T23:38:28;100852.22;;;4.84;88.41
5455;BME280;2750;49.050;9.250;2023-02-04T23:43:30;100842.38;;;5.28;88.36
5455;BME280;2750;49.050;9.250;2023-02-04T23:48:31;100832.78;;;5.12;88.97
5455;BME280;2750;49.050;9.250;2023-02-04T23:53:34;100842.56;;;5.55;87.79
5455;BME280;2750;49.050;9.250;2023-02-04T23:58:36;100839.00;;;5.38;88.02
